Conway, North Dakota
Current Conditions -  °F | °C
As of 7:15 PM on Saturday 25 Oct 2014 (Local Time) from KGAF Reporting Station
Clear Clear  
Wind Chill: 50°   Ceiling: Unl
Heat Index: 50°   Visibility: 10mi
Dew Point: 28°   Wind: 7mph
Humidity: 43%   Direction: 260°W
Pressure: 30.01"   Gusts: NA
Location:  48.2362°N, 97.4515°W
Report Text: KGAF 260015Z AUTO 26006KT 10SM CLR 10/M02 A3001 RMK AO2
Loading
Personal Weather Stations






























Interactive Weather Map New forecast layout! Learn more

10-Day Weather Forecast

Advertisements
Track Severe Weather on mobile